createdAt,value
2023-04-02T00:00:14.612Z,9.34
2023-04-02T00:02:50.370Z,9.34
2023-04-02T00:05:50.482Z,9.05
2023-04-02T00:08:30.985Z,8.56
2023-04-02T00:11:02.464Z,8.63
2023-04-02T00:13:33.888Z,9.26
2023-04-02T00:16:03.286Z,9.06
2023-04-02T00:18:31.738Z,9.02
2023-04-02T00:21:08.443Z,9.45
2023-04-02T00:23:37.623Z,9.71
2023-04-02T00:26:22.928Z,9.21
2023-04-02T00:28:50.715Z,9.25
2023-04-02T00:31:20.758Z,9.70
2023-04-02T00:33:49.778Z,9.40
2023-04-02T00:36:19.941Z,9.05
2023-04-02T00:38:48.893Z,8.84
2023-04-02T00:41:23.449Z,8.77
2023-04-02T00:43:52.232Z,8.33
2023-04-02T00:46:25.147Z,8.35
2023-04-02T00:48:58.905Z,7.92
2023-04-02T00:51:31.012Z,7.99
2023-04-02T00:54:03.121Z,7.89
2023-04-02T00:56:37.804Z,8.29
2023-04-02T00:59:06.342Z,8.41
2023-04-02T01:01:42.533Z,8.54
2023-04-02T01:04:29.012Z,8.73
2023-04-02T01:06:56.717Z,8.97
2023-04-02T01:09:36.444Z,8.71
2023-04-02T01:12:28.999Z,8.70
2023-04-02T01:15:09.678Z,8.79
2023-04-02T01:17:49.652Z,8.88
2023-04-02T01:20:37.234Z,9.02
2023-04-02T01:23:10.415Z,8.97
2023-04-02T01:25:44.592Z,9.50
2023-04-02T01:28:20.396Z,9.07
2023-04-02T01:30:53.682Z,8.97
2023-04-02T01:33:23.793Z,9.10
2023-04-02T01:36:01.693Z,9.41
2023-04-02T01:38:38.722Z,9.05
2023-04-02T01:41:13.176Z,8.64
2023-04-02T01:43:47.430Z,8.95
2023-04-02T01:46:31.864Z,8.73
2023-04-02T01:49:02.293Z,9.03
2023-04-02T01:51:31.926Z,9.29
2023-04-02T01:54:01.749Z,8.56
2023-04-02T01:56:30.924Z,9.05
2023-04-02T01:58:59.433Z,9.36
2023-04-02T02:01:32.844Z,8.87
2023-04-02T02:04:00.669Z,8.95
2023-04-02T02:06:28.400Z,9.22
2023-04-02T02:08:59.288Z,9.42
2023-04-02T02:11:29.510Z,9.03
2023-04-02T02:13:58.692Z,9.15
2023-04-02T02:16:29.904Z,8.86
2023-04-02T02:19:00.888Z,9.19
2023-04-02T02:21:39.750Z,9.64
2023-04-02T02:24:16.213Z,9.49
2023-04-02T02:26:47.074Z,9.51
2023-04-02T02:29:19.552Z,8.98
2023-04-02T02:31:53.394Z,8.96
2023-04-02T02:34:25.872Z,9.29
2023-04-02T02:36:57.383Z,9.09
2023-04-02T02:39:31.258Z,9.35
2023-04-02T02:42:03.758Z,9.71
2023-04-02T02:44:36.213Z,10.14
2023-04-02T02:47:11.188Z,10.38
2023-04-02T02:49:41.746Z,10.75
2023-04-02T02:52:16.697Z,10.17
2023-04-02T02:54:47.200Z,10.34
2023-04-02T02:57:20.001Z,10.48
2023-04-02T02:59:48.166Z,10.28
2023-04-02T03:02:17.294Z,10.22
2023-04-02T03:04:48.675Z,10.13
2023-04-02T03:07:19.234Z,10.29
2023-04-02T03:09:53.440Z,10.42
2023-04-02T03:12:43.052Z,10.37
2023-04-02T03:15:19.520Z,10.10
2023-04-02T03:17:51.383Z,10.26
2023-04-02T03:20:25.367Z,10.43
2023-04-02T03:22:58.679Z,10.45
2023-04-02T03:25:31.854Z,10.45
2023-04-02T03:28:03.321Z,10.49
2023-04-02T03:30:38.014Z,10.28
2023-04-02T03:33:14.157Z,9.97
2023-04-02T03:35:45.476Z,10.10
2023-04-02T03:38:19.195Z,10.16
2023-04-02T03:40:58.995Z,10.20
2023-04-02T03:43:27.949Z,10.44
2023-04-02T03:46:01.417Z,9.71
2023-04-02T03:48:35.933Z,9.98
2023-04-02T03:51:07.936Z,10.20
2023-04-02T03:53:35.792Z,10.27
2023-04-02T03:56:03.845Z,10.47
2023-04-02T03:58:39.561Z,10.17
2023-04-02T04:01:17.390Z,9.50
2023-04-02T04:03:50.740Z,9.69
2023-04-02T04:06:24.934Z,9.67
2023-04-02T04:08:55.529Z,9.65
2023-04-02T04:11:28.107Z,9.73
2023-04-02T04:14:00.566Z,9.99
2023-04-02T04:16:34.284Z,9.63
2023-04-02T04:19:08.070Z,9.45
2023-04-02T04:21:38.091Z,9.50
2023-04-02T04:24:08.153Z,9.25
2023-04-02T04:26:42.146Z,9.67
2023-04-02T04:29:20.527Z,9.30
2023-04-02T04:31:50.321Z,9.60
2023-04-02T04:34:24.853Z,9.95
2023-04-02T04:36:55.982Z,9.43
2023-04-02T04:39:29.798Z,9.63
2023-04-02T04:42:00.504Z,9.01
2023-04-02T04:44:37.780Z,9.23
2023-04-02T04:47:12.337Z,8.50
2023-04-02T04:49:44.209Z,8.45
2023-04-02T04:52:18.640Z,8.03
2023-04-02T04:54:46.955Z,8.47
2023-04-02T04:57:28.497Z,8.32
2023-04-02T05:00:06.300Z,8.30
2023-04-02T05:02:38.989Z,7.79
2023-04-02T05:05:18.975Z,7.87
2023-04-02T05:07:51.864Z,8.12
2023-04-02T05:10:26.470Z,8.08
2023-04-02T05:12:58.012Z,7.96
2023-04-02T05:15:31.152Z,8.06
2023-04-02T05:18:07.240Z,7.88
2023-04-02T05:20:43.468Z,7.87
2023-04-02T05:23:18.646Z,7.96
2023-04-02T05:25:59.132Z,7.95
2023-04-02T05:28:32.947Z,8.58
2023-04-02T05:31:04.317Z,8.85
2023-04-02T05:33:34.674Z,7.86
2023-04-02T05:36:06.238Z,8.25
2023-04-02T05:38:36.315Z,8.54
2023-04-02T05:41:07.756Z,8.41
2023-04-02T05:43:37.958Z,8.41
2023-04-02T05:46:16.228Z,8.52
2023-04-02T05:48:46.113Z,8.38
2023-04-02T05:51:20.006Z,8.64
2023-04-02T05:53:50.795Z,8.95
2023-04-02T05:56:22.686Z,8.77
2023-04-02T05:58:53.231Z,8.59
2023-04-02T06:01:29.303Z,8.82
2023-04-02T06:04:04.566Z,8.71
2023-04-02T06:06:55.468Z,8.40
2023-04-02T06:09:29.800Z,8.33
2023-04-02T06:12:05.452Z,8.04
2023-04-02T06:14:32.973Z,8.14
2023-04-02T06:17:00.972Z,8.17
2023-04-02T06:19:33.817Z,8.22
2023-04-02T06:22:12.720Z,8.16
2023-04-02T06:24:42.051Z,8.15
2023-04-02T06:27:13.766Z,8.14
2023-04-02T06:29:45.342Z,8.54
2023-04-02T06:32:13.842Z,8.53
2023-04-02T06:34:42.916Z,8.36
2023-04-02T06:37:20.901Z,8.18
2023-04-02T06:39:48.897Z,8.27
2023-04-02T06:42:20.413Z,8.29
2023-04-02T06:44:48.119Z,8.43
2023-04-02T06:47:24.837Z,8.44
2023-04-02T06:49:58.434Z,8.21
2023-04-02T06:52:31.614Z,8.17
2023-04-02T06:55:00.351Z,8.33
2023-04-02T06:57:27.923Z,8.39
2023-04-02T06:59:55.666Z,8.76
2023-04-02T07:02:34.357Z,8.58
2023-04-02T07:05:04.661Z,8.57
2023-04-02T07:07:33.537Z,8.51
2023-04-02T07:10:01.038Z,8.59
2023-04-02T07:12:28.593Z,8.79
2023-04-02T07:14:56.165Z,8.45
2023-04-02T07:17:23.698Z,8.81
2023-04-02T07:19:51.214Z,9.04
2023-04-02T07:22:19.440Z,8.92
2023-04-02T07:24:48.502Z,8.89
2023-04-02T07:27:16.243Z,8.74
2023-04-02T07:29:43.754Z,8.67
2023-04-02T07:32:12.160Z,8.59
2023-04-02T07:34:40.557Z,8.75
2023-04-02T07:37:08.613Z,8.67
2023-04-02T07:39:38.333Z,8.70
2023-04-02T07:42:08.632Z,8.74
2023-04-02T07:44:36.260Z,8.91
2023-04-02T07:47:03.851Z,8.93
2023-04-02T07:49:31.488Z,9.02
2023-04-02T07:51:58.945Z,9.00
2023-04-02T07:54:27.139Z,8.61
2023-04-02T07:56:54.696Z,8.86
2023-04-02T07:59:23.629Z,9.06
2023-04-02T08:01:52.805Z,9.07
2023-04-02T08:04:21.769Z,9.23
2023-04-02T08:06:50.541Z,8.97
2023-04-02T08:09:18.418Z,9.15
2023-04-02T08:11:46.490Z,9.35
2023-04-02T08:14:14.190Z,9.18
2023-04-02T08:16:48.463Z,9.10
2023-04-02T08:19:16.407Z,9.33
2023-04-02T08:21:43.923Z,9.96
2023-04-02T08:24:11.689Z,9.87
2023-04-02T08:26:39.164Z,9.71
2023-04-02T08:29:06.629Z,9.13
2023-04-02T08:31:34.065Z,8.70
2023-04-02T08:34:03.276Z,8.86
2023-04-02T08:36:34.862Z,9.02
2023-04-02T08:39:02.538Z,9.24
2023-04-02T08:41:32.138Z,9.43
2023-04-02T08:44:19.334Z,9.00
2023-04-02T08:46:50.262Z,9.40
2023-04-02T08:49:28.781Z,9.09
2023-04-02T08:51:56.464Z,9.42
2023-04-02T08:54:28.090Z,9.43
2023-04-02T08:57:02.073Z,9.34
2023-04-02T08:59:33.855Z,9.22
2023-04-02T09:02:25.699Z,9.02
2023-04-02T09:04:55.021Z,9.11
2023-04-02T09:07:22.633Z,9.02
2023-04-02T09:09:51.596Z,9.00
2023-04-02T09:12:21.471Z,8.93
2023-04-02T09:14:58.999Z,8.78
2023-04-02T09:17:27.863Z,8.95
2023-04-02T09:19:59.758Z,9.00
2023-04-02T09:22:29.069Z,8.82
2023-04-02T09:24:58.191Z,9.10
2023-04-02T09:27:29.112Z,9.15
2023-04-02T09:30:03.535Z,9.32
2023-04-02T09:32:50.251Z,9.30
2023-04-02T09:35:25.980Z,9.14
2023-04-02T09:38:30.583Z,9.15
2023-04-02T09:41:01.271Z,9.14
2023-04-02T09:43:30.629Z,9.41
2023-04-02T09:46:01.344Z,9.76
2023-04-02T09:48:31.589Z,9.51
2023-04-02T09:51:08.334Z,9.84
2023-04-02T09:53:37.249Z,9.72
2023-04-02T09:56:17.108Z,9.78
2023-04-02T09:58:45.999Z,9.33
2023-04-02T10:01:30.105Z,8.68
2023-04-02T10:03:59.234Z,8.46
2023-04-02T10:06:29.266Z,8.66
2023-04-02T10:08:56.904Z,8.56
2023-04-02T10:11:36.409Z,8.11
2023-04-02T10:14:16.815Z,8.15
2023-04-02T10:16:48.570Z,8.22
2023-04-02T10:19:23.666Z,8.50
2023-04-02T10:21:54.824Z,8.33
2023-04-02T10:24:22.263Z,8.42
2023-04-02T10:27:01.914Z,8.55
2023-04-02T10:29:42.873Z,8.40
2023-04-02T10:32:15.747Z,7.97
2023-04-02T10:34:50.645Z,8.07
2023-04-02T10:37:39.526Z,8.12
2023-04-02T10:40:15.663Z,8.40
2023-04-02T10:42:49.199Z,8.62
2023-04-02T10:45:24.674Z,8.40
2023-04-02T10:48:00.515Z,8.19
2023-04-02T10:50:33.456Z,8.24
2023-04-02T10:53:12.019Z,8.27
2023-04-02T10:55:44.643Z,8.24
2023-04-02T10:58:24.212Z,7.90
2023-04-02T11:00:54.830Z,8.02
2023-04-02T11:03:32.483Z,8.33
2023-04-02T11:06:05.186Z,8.40
2023-04-02T11:08:42.296Z,8.55
2023-04-02T11:11:15.049Z,8.22
2023-04-02T11:13:53.394Z,8.09
2023-04-02T11:16:21.444Z,8.11
2023-04-02T11:19:11.174Z,8.50
2023-04-02T11:21:54.957Z,8.84
2023-04-02T11:24:37.809Z,8.50
2023-04-02T11:27:08.291Z,8.56
2023-04-02T11:29:38.118Z,8.35
2023-04-02T11:32:27.474Z,8.37
2023-04-02T11:35:25.884Z,8.35
2023-04-02T11:37:54.670Z,7.97
2023-04-02T11:40:48.111Z,7.93
2023-04-02T11:43:51.314Z,8.36
2023-04-02T11:46:46.594Z,9.05
2023-04-02T11:49:41.826Z,9.26
2023-04-02T11:52:22.149Z,9.16
2023-04-02T11:54:58.226Z,8.84
2023-04-02T11:57:48.547Z,9.35
2023-04-02T12:00:33.858Z,8.95
2023-04-02T12:03:21.010Z,8.90
2023-04-02T12:05:58.509Z,8.69
2023-04-02T12:08:50.844Z,8.71
2023-04-02T12:11:33.657Z,8.18
2023-04-02T12:14:03.659Z,8.34
2023-04-02T12:16:35.325Z,8.43
2023-04-02T12:19:03.412Z,8.13
2023-04-02T12:21:31.087Z,8.02
2023-04-02T12:24:00.278Z,7.96
2023-04-02T12:26:37.377Z,7.89
2023-04-02T12:29:24.720Z,8.20
2023-04-02T12:31:53.294Z,8.50
2023-04-02T12:34:22.789Z,8.72
2023-04-02T12:36:55.636Z,8.39
2023-04-02T12:39:25.843Z,8.99
2023-04-02T12:41:55.016Z,9.42
2023-04-02T12:44:25.693Z,9.25
2023-04-02T12:46:54.096Z,9.06
2023-04-02T12:49:27.964Z,9.00
2023-04-02T12:51:56.557Z,9.33
2023-04-02T12:54:24.638Z,9.30
2023-04-02T12:56:52.628Z,9.60
2023-04-02T12:59:31.812Z,9.55
2023-04-02T13:02:01.077Z,8.56
2023-04-02T13:04:29.018Z,8.31
2023-04-02T13:06:57.373Z,8.63
2023-04-02T13:09:32.067Z,8.76
2023-04-02T13:12:00.228Z,8.98
2023-04-02T13:14:29.332Z,8.66
2023-04-02T13:16:57.144Z,8.50
2023-04-02T13:19:31.091Z,8.78
2023-04-02T13:22:00.268Z,8.49
2023-04-02T13:24:29.439Z,8.27
2023-04-02T13:26:59.109Z,8.32
2023-04-02T13:29:30.304Z,8.40
2023-04-02T13:32:00.138Z,8.60
2023-04-02T13:34:27.751Z,8.71
2023-04-02T13:36:55.466Z,8.82
2023-04-02T13:39:22.960Z,9.28
2023-04-02T13:41:53.132Z,9.72
2023-04-02T13:44:23.849Z,9.24
2023-04-02T13:46:54.309Z,9.01
2023-04-02T13:49:22.925Z,8.48
2023-04-02T13:51:52.123Z,8.38
2023-04-02T13:54:24.674Z,8.10
2023-04-02T13:56:52.589Z,7.69
2023-04-02T13:59:20.268Z,7.52
2023-04-02T14:01:48.465Z,7.27
2023-04-02T14:04:22.894Z,7.05
2023-04-02T14:07:09.652Z,6.99
2023-04-02T14:09:47.701Z,6.76
2023-04-02T14:12:24.690Z,6.62
2023-04-02T14:15:05.247Z,6.72
2023-04-02T14:17:47.339Z,6.83
2023-04-02T14:20:31.891Z,6.56
2023-04-02T14:23:22.971Z,6.78
2023-04-02T14:26:00.806Z,6.85
2023-04-02T14:28:39.148Z,6.79
2023-04-02T14:31:15.884Z,6.74
2023-04-02T14:33:52.393Z,6.63
2023-04-02T14:36:29.214Z,6.38
2023-04-02T14:39:04.146Z,6.39
2023-04-02T14:41:40.626Z,6.38
2023-04-02T14:44:09.559Z,6.27
2023-04-02T14:46:38.784Z,6.44
2023-04-02T14:49:19.781Z,6.70
2023-04-02T14:51:51.918Z,6.55
2023-04-02T14:54:28.399Z,6.75
2023-04-02T14:56:59.567Z,6.82
2023-04-02T14:59:31.562Z,7.04
2023-04-02T15:02:04.619Z,7.04
2023-04-02T15:04:36.849Z,6.85
2023-04-02T15:07:08.821Z,6.92
2023-04-02T15:09:41.433Z,7.28
2023-04-02T15:12:14.523Z,7.22
2023-04-02T15:14:45.562Z,6.80
2023-04-02T15:17:13.621Z,7.01
2023-04-02T15:19:41.142Z,7.01
2023-04-02T15:22:32.673Z,7.07
2023-04-02T15:25:12.310Z,6.81
2023-04-02T15:27:57.054Z,6.67
2023-04-02T15:30:28.612Z,6.57
2023-04-02T15:33:09.239Z,6.69
2023-04-02T15:35:44.486Z,6.99
2023-04-02T15:38:22.554Z,6.65
2023-04-02T15:40:55.741Z,6.43
2023-04-02T15:43:28.410Z,6.34
2023-04-02T15:46:18.485Z,6.32
2023-04-02T15:49:11.045Z,6.36
2023-04-02T15:51:51.265Z,6.37
2023-04-02T15:54:34.629Z,6.15
2023-04-02T15:57:13.099Z,6.58
2023-04-02T15:59:54.452Z,6.68
2023-04-02T16:02:40.465Z,6.68
2023-04-02T16:05:19.167Z,6.70
2023-04-02T16:08:09.047Z,6.74
2023-04-02T16:10:42.981Z,6.64
2023-04-02T16:13:18.730Z,6.59
2023-04-02T16:15:52.064Z,6.58
2023-04-02T16:18:31.214Z,6.47
2023-04-02T16:21:02.300Z,6.43
2023-04-02T16:23:34.947Z,6.12
2023-04-02T16:26:13.009Z,6.07
2023-04-02T16:28:47.373Z,6.00
2023-04-02T16:31:20.752Z,6.00
2023-04-02T16:33:59.519Z,5.72
2023-04-02T16:36:36.466Z,5.72
2023-04-02T16:39:13.880Z,5.76
2023-04-02T16:41:54.090Z,5.92
2023-04-02T16:44:32.485Z,5.88
2023-04-02T16:47:13.232Z,5.56
2023-04-02T16:49:50.758Z,5.42
2023-04-02T16:52:35.586Z,5.49
2023-04-02T16:55:24.225Z,5.35
2023-04-02T16:58:00.322Z,5.55
2023-04-02T17:00:34.923Z,5.81
2023-04-02T17:03:14.728Z,5.59
2023-04-02T17:05:53.945Z,5.31
2023-04-02T17:08:24.455Z,5.40
2023-04-02T17:10:56.575Z,5.16
2023-04-02T17:13:29.717Z,5.12
2023-04-02T17:16:05.828Z,5.13
2023-04-02T17:18:34.517Z,5.08
2023-04-02T17:21:06.309Z,5.00
2023-04-02T17:23:55.330Z,5.18
2023-04-02T17:26:26.978Z,5.01
2023-04-02T17:28:58.302Z,5.01
2023-04-02T17:31:28.188Z,4.93
2023-04-02T17:33:55.701Z,4.84
2023-04-02T17:36:42.168Z,4.86
2023-04-02T17:39:18.450Z,4.75
2023-04-02T17:41:53.144Z,4.57
2023-04-02T17:44:45.911Z,4.70
2023-04-02T17:47:20.335Z,4.74
2023-04-02T17:49:58.483Z,4.72
2023-04-02T17:52:30.899Z,4.37
2023-04-02T17:55:07.528Z,4.57
2023-04-02T17:57:47.262Z,4.56
2023-04-02T18:00:26.536Z,4.68
2023-04-02T18:03:08.509Z,4.45
2023-04-02T18:05:43.392Z,4.37
2023-04-02T18:08:24.083Z,4.21
2023-04-02T18:11:02.414Z,4.30
2023-04-02T18:13:35.479Z,4.16
2023-04-02T18:16:17.941Z,3.84
2023-04-02T18:18:57.783Z,3.88
2023-04-02T18:21:32.047Z,3.92
2023-04-02T18:24:16.281Z,3.85
2023-04-02T18:26:53.661Z,3.82
2023-04-02T18:29:31.806Z,3.80
2023-04-02T18:32:31.573Z,3.83
2023-04-02T18:35:09.903Z,3.96
2023-04-02T18:37:44.443Z,3.96
2023-04-02T18:40:39.399Z,3.78
2023-04-02T18:43:18.866Z,3.89
2023-04-02T18:45:56.194Z,3.78
2023-04-02T18:48:40.738Z,3.54
2023-04-02T18:51:14.546Z,3.67
2023-04-02T18:53:43.201Z,3.82
2023-04-02T18:56:14.394Z,3.92
2023-04-02T18:58:46.988Z,4.04
2023-04-02T19:01:19.129Z,3.91
2023-04-02T19:03:52.340Z,3.94
2023-04-02T19:06:24.273Z,3.74
2023-04-02T19:08:58.242Z,3.82
2023-04-02T19:11:29.650Z,3.88
2023-04-02T19:14:00.575Z,3.60
2023-04-02T19:16:55.736Z,3.68
2023-04-02T19:19:27.792Z,3.89
2023-04-02T19:22:16.646Z,3.71
2023-04-02T19:25:00.575Z,3.50
2023-04-02T19:27:37.981Z,3.47
2023-04-02T19:30:26.300Z,3.55
2023-04-02T19:33:03.339Z,3.60
2023-04-02T19:35:41.116Z,3.41
2023-04-02T19:38:20.089Z,3.53
2023-04-02T19:40:55.745Z,3.50
2023-04-02T19:43:23.249Z,3.46
2023-04-02T19:45:53.178Z,3.48
2023-04-02T19:48:23.397Z,3.41
2023-04-02T19:50:52.219Z,3.50
2023-04-02T19:53:20.140Z,3.74
2023-04-02T19:55:47.643Z,3.73
2023-04-02T19:58:24.185Z,3.50
2023-04-02T20:00:51.714Z,3.57
2023-04-02T20:03:19.241Z,3.63
2023-04-02T20:05:46.909Z,3.57
2023-04-02T20:08:15.797Z,3.60
2023-04-02T20:10:43.709Z,3.83
2023-04-02T20:13:11.286Z,3.70
2023-04-02T20:15:40.309Z,3.66
2023-04-02T20:18:09.247Z,3.57
2023-04-02T20:20:37.026Z,3.66
2023-04-02T20:23:04.681Z,3.52
2023-04-02T20:25:33.523Z,3.61
2023-04-02T20:28:03.658Z,3.78
2023-04-02T20:30:31.587Z,3.85
2023-04-02T20:32:59.358Z,3.79
2023-04-02T20:35:27.485Z,3.64
2023-04-02T20:37:54.991Z,3.69
2023-04-02T20:40:22.546Z,3.68
2023-04-02T20:42:52.630Z,3.59
2023-04-02T20:45:20.142Z,3.62
2023-04-02T20:47:47.691Z,3.56
2023-04-02T20:50:15.547Z,3.80
2023-04-02T20:52:43.013Z,3.84
2023-04-02T20:55:11.103Z,3.82
2023-04-02T20:57:38.675Z,3.59
2023-04-02T21:00:10.170Z,3.57
2023-04-02T21:02:37.789Z,3.69
2023-04-02T21:05:06.133Z,3.69
2023-04-02T21:07:34.336Z,3.84
2023-04-02T21:10:01.841Z,3.87
2023-04-02T21:12:29.379Z,3.79
2023-04-02T21:15:00.354Z,3.75
2023-04-02T21:17:31.313Z,3.63
2023-04-02T21:19:58.813Z,3.60
2023-04-02T21:22:26.253Z,3.55
2023-04-02T21:24:53.731Z,3.62
2023-04-02T21:27:25.456Z,3.73
2023-04-02T21:29:52.921Z,3.74
2023-04-02T21:32:21.958Z,3.66
2023-04-02T21:34:51.097Z,3.70
2023-04-02T21:37:18.580Z,3.69
2023-04-02T21:39:46.131Z,3.75
2023-04-02T21:42:14.315Z,3.72
2023-04-02T21:44:41.790Z,3.64
2023-04-02T21:47:09.266Z,3.58
2023-04-02T21:49:36.761Z,3.51
2023-04-02T21:52:05.836Z,3.39
2023-04-02T21:54:33.361Z,3.58
2023-04-02T21:57:00.856Z,3.76
2023-04-02T21:59:28.441Z,3.61
2023-04-02T22:01:56.111Z,3.62
2023-04-02T22:04:25.792Z,3.63
2023-04-02T22:06:54.017Z,3.67
2023-04-02T22:09:24.771Z,3.58
2023-04-02T22:11:55.228Z,3.74
2023-04-02T22:14:24.235Z,3.96
2023-04-02T22:16:51.887Z,3.66
2023-04-02T22:19:19.567Z,3.72
2023-04-02T22:21:47.112Z,4.04
2023-04-02T22:24:18.555Z,3.73
2023-04-02T22:26:47.702Z,3.84
2023-04-02T22:29:15.704Z,3.86
2023-04-02T22:31:43.425Z,4.16
2023-04-02T22:34:11.055Z,4.28
2023-04-02T22:36:38.538Z,3.71
2023-04-02T22:39:10.310Z,3.59
2023-04-02T22:41:38.339Z,3.65
2023-04-02T22:44:07.192Z,3.81
2023-04-02T22:46:35.010Z,3.81
2023-04-02T22:49:03.175Z,3.63
2023-04-02T22:51:31.014Z,3.48
2023-04-02T22:53:58.632Z,3.62
2023-04-02T22:56:28.699Z,3.36
2023-04-02T22:58:56.298Z,3.66
2023-04-02T23:01:28.247Z,3.47
2023-04-02T23:03:56.767Z,3.77
2023-04-02T23:06:25.523Z,3.95
2023-04-02T23:08:53.642Z,3.44
2023-04-02T23:11:22.837Z,3.88
2023-04-02T23:13:52.528Z,4.04
2023-04-02T23:16:21.227Z,3.92
2023-04-02T23:18:50.136Z,3.69
2023-04-02T23:21:18.767Z,3.74
2023-04-02T23:23:46.557Z,4.01
2023-04-02T23:26:15.518Z,4.35
2023-04-02T23:28:43.508Z,4.13
2023-04-02T23:31:13.839Z,3.98
2023-04-02T23:33:41.428Z,4.52
2023-04-02T23:36:11.954Z,4.27
2023-04-02T23:38:39.433Z,4.26
2023-04-02T23:41:06.944Z,4.47
2023-04-02T23:43:34.732Z,5.03
2023-04-02T23:46:02.233Z,5.10
2023-04-02T23:48:29.704Z,5.40
2023-04-02T23:50:57.253Z,5.42
2023-04-02T23:53:26.273Z,5.07
2023-04-02T23:55:53.841Z,5.15
2023-04-02T23:58:21.407Z,5.27
